sensor_id;sensor_type;location;lat;lon;timestamp;pressure;altitude;pressure_sealevel;temperature;humidity
43701;BME280;58809;47.984;7.964;2022-12-11T00:01:44;96539.28;;;-2.56;100.00
43701;BME280;58809;47.984;7.964;2022-12-11T00:04:45;96534.59;;;-2.50;100.00
43701;BME280;58809;47.984;7.964;2022-12-11T00:07:47;96526.31;;;-2.44;100.00
43701;BME280;58809;47.984;7.964;2022-12-11T00:10:49;96530.22;;;-2.50;100.00
43701;BME280;58809;47.984;7.964;2022-12-11T00:13:50;96528.69;;;-2.53;100.00
43701;BME280;58809;47.984;7.964;2022-12-11T00:16:52;96531.03;;;-2.61;100.00
43701;BME280;58809;47.984;7.964;2022-12-11T00:19:54;96541.16;;;-2.69;100.00
43701;BME280;58809;47.984;7.964;2022-12-11T00:22:55;96540.19;;;-2.79;100.00
43701;BME280;58809;47.984;7.964;2022-12-11T00:25:57;96540.16;;;-2.91;100.00
43701;BME280;58809;47.984;7.964;2022-12-11T00:28:58;96536.59;;;-3.01;100.00
43701;BME280;58809;47.984;7.964;2022-12-11T00:32:00;96540.84;;;-3.00;100.00
43701;BME280;58809;47.984;7.964;2022-12-11T00:35:02;96550.13;;;-2.97;100.00
43701;BME280;58809;47.984;7.964;2022-12-11T00:38:04;96548.84;;;-2.92;100.00
43701;BME280;58809;47.984;7.964;2022-12-11T00:41:05;96554.28;;;-2.83;100.00
43701;BME280;58809;47.984;7.964;2022-12-11T00:44:07;96561.00;;;-2.81;100.00
43701;BME280;58809;47.984;7.964;2022-12-11T00:47:08;96556.63;;;-2.92;100.00
43701;BME280;58809;47.984;7.964;2022-12-11T00:50:10;96554.50;;;-2.86;100.00
43701;BME280;58809;47.984;7.964;2022-12-11T00:53:12;96554.41;;;-2.85;100.00
43701;BME280;58809;47.984;7.964;2022-12-11T00:56:17;96558.53;;;-2.82;100.00
43701;BME280;58809;47.984;7.964;2022-12-11T00:59:19;96558.31;;;-2.79;100.00
43701;BME280;58809;47.984;7.964;2022-12-11T01:02:20;96557.91;;;-2.86;100.00
43701;BME280;58809;47.984;7.964;2022-12-11T01:05:22;96563.25;;;-2.87;100.00
43701;BME280;58809;47.984;7.964;2022-12-11T01:08:23;96558.16;;;-2.89;100.00
43701;BME280;58809;47.984;7.964;2022-12-11T01:11:25;96560.75;;;-2.89;100.00
43701;BME280;58809;47.984;7.964;2022-12-11T01:14:27;96561.69;;;-2.90;100.00
43701;BME280;58809;47.984;7.964;2022-12-11T01:17:28;96564.16;;;-2.88;100.00
43701;BME280;58809;47.984;7.964;2022-12-11T01:20:30;96571.34;;;-2.81;100.00
43701;BME280;58809;47.984;7.964;2022-12-11T01:23:31;96576.44;;;-2.79;100.00
43701;BME280;58809;47.984;7.964;2022-12-11T01:26:33;96575.72;;;-2.81;100.00
43701;BME280;58809;47.984;7.964;2022-12-11T01:29:35;96577.34;;;-2.80;100.00
43701;BME280;58809;47.984;7.964;2022-12-11T01:32:36;96582.09;;;-2.74;100.00
43701;BME280;58809;47.984;7.964;2022-12-11T01:35:38;96587.72;;;-2.80;100.00
43701;BME280;58809;47.984;7.964;2022-12-11T01:38:40;96596.22;;;-2.78;100.00
43701;BME280;58809;47.984;7.964;2022-12-11T01:41:42;96594.81;;;-2.71;100.00
43701;BME280;58809;47.984;7.964;2022-12-11T01:47:45;96595.56;;;-2.58;100.00
43701;BME280;58809;47.984;7.964;2022-12-11T01:50:51;96595.91;;;-2.51;100.00
43701;BME280;58809;47.984;7.964;2022-12-11T01:54:00;96584.72;;;-2.52;100.00
43701;BME280;58809;47.984;7.964;2022-12-11T01:57:06;96596.78;;;-2.39;100.00
43701;BME280;58809;47.984;7.964;2022-12-11T02:00:09;96599.47;;;-2.41;100.00
43701;BME280;58809;47.984;7.964;2022-12-11T02:03:13;96602.06;;;-2.41;100.00
43701;BME280;58809;47.984;7.964;2022-12-11T02:06:39;96609.25;;;-2.44;100.00
43701;BME280;58809;47.984;7.964;2022-12-11T02:09:43;96600.28;;;-2.40;100.00
43701;BME280;58809;47.984;7.964;2022-12-11T02:13:02;96596.78;;;-2.39;100.00
43701;BME280;58809;47.984;7.964;2022-12-11T02:16:18;96601.94;;;-2.39;100.00
43701;BME280;58809;47.984;7.964;2022-12-11T02:20:03;96611.94;;;-2.35;100.00
43701;BME280;58809;47.984;7.964;2022-12-11T02:26:32;96606.66;;;-2.33;100.00
43701;BME280;58809;47.984;7.964;2022-12-11T02:29:37;96600.44;;;-2.30;100.00
43701;BME280;58809;47.984;7.964;2022-12-11T02:32:55;96594.88;;;-2.26;100.00
43701;BME280;58809;47.984;7.964;2022-12-11T02:35:57;96608.81;;;-2.27;100.00
43701;BME280;58809;47.984;7.964;2022-12-11T02:39:01;96601.72;;;-2.36;100.00
43701;BME280;58809;47.984;7.964;2022-12-11T02:42:05;96597.72;;;-2.29;100.00
43701;BME280;58809;47.984;7.964;2022-12-11T02:45:07;96606.81;;;-2.23;100.00
43701;BME280;58809;47.984;7.964;2022-12-11T02:48:11;96615.84;;;-2.29;100.00
43701;BME280;58809;47.984;7.964;2022-12-11T02:51:15;96619.13;;;-2.49;100.00
43701;BME280;58809;47.984;7.964;2022-12-11T02:54:23;96612.53;;;-2.42;100.00
43701;BME280;58809;47.984;7.964;2022-12-11T02:57:34;96606.91;;;-2.36;100.00
43701;BME280;58809;47.984;7.964;2022-12-11T03:00:38;96606.78;;;-2.35;100.00
43701;BME280;58809;47.984;7.964;2022-12-11T03:03:40;96589.09;;;-2.41;100.00
43701;BME280;58809;47.984;7.964;2022-12-11T03:06:45;96594.66;;;-2.34;100.00
43701;BME280;58809;47.984;7.964;2022-12-11T03:09:49;96595.13;;;-2.29;100.00
43701;BME280;58809;47.984;7.964;2022-12-11T03:12:52;96595.84;;;-2.27;100.00
43701;BME280;58809;47.984;7.964;2022-12-11T03:22:40;96593.47;;;-2.30;100.00
43701;BME280;58809;47.984;7.964;2022-12-11T03:25:58;96581.00;;;-2.36;100.00
43701;BME280;58809;47.984;7.964;2022-12-11T03:29:04;96589.69;;;-2.48;100.00
43701;BME280;58809;47.984;7.964;2022-12-11T03:32:11;96597.34;;;-2.58;100.00
43701;BME280;58809;47.984;7.964;2022-12-11T03:35:22;96600.84;;;-2.59;100.00
43701;BME280;58809;47.984;7.964;2022-12-11T03:38:31;96609.00;;;-2.53;100.00
43701;BME280;58809;47.984;7.964;2022-12-11T03:41:36;96603.09;;;-2.55;100.00
43701;BME280;58809;47.984;7.964;2022-12-11T03:44:39;96598.38;;;-2.61;100.00
43701;BME280;58809;47.984;7.964;2022-12-11T03:47:44;96601.25;;;-2.77;100.00
43701;BME280;58809;47.984;7.964;2022-12-11T03:50:47;96593.81;;;-2.93;100.00
43701;BME280;58809;47.984;7.964;2022-12-11T03:53:51;96601.53;;;-3.04;100.00
43701;BME280;58809;47.984;7.964;2022-12-11T03:56:56;96602.47;;;-3.05;100.00
43701;BME280;58809;47.984;7.964;2022-12-11T03:59:58;96601.66;;;-3.05;100.00
43701;BME280;58809;47.984;7.964;2022-12-11T04:03:00;96596.84;;;-2.99;100.00
43701;BME280;58809;47.984;7.964;2022-12-11T04:06:14;96595.69;;;-2.95;100.00
43701;BME280;58809;47.984;7.964;2022-12-11T04:09:16;96611.69;;;-2.90;100.00
43701;BME280;58809;47.984;7.964;2022-12-11T04:12:17;96615.13;;;-2.89;100.00
43701;BME280;58809;47.984;7.964;2022-12-11T04:15:19;96604.59;;;-2.99;100.00
43701;BME280;58809;47.984;7.964;2022-12-11T04:18:21;96614.75;;;-2.96;100.00
43701;BME280;58809;47.984;7.964;2022-12-11T04:21:41;96608.97;;;-2.99;100.00
43701;BME280;58809;47.984;7.964;2022-12-11T04:25:02;96603.88;;;-3.01;100.00
43701;BME280;58809;47.984;7.964;2022-12-11T04:28:04;96599.22;;;-2.96;100.00
43701;BME280;58809;47.984;7.964;2022-12-11T04:31:10;96601.69;;;-2.94;100.00
43701;BME280;58809;47.984;7.964;2022-12-11T04:34:12;96599.81;;;-2.92;100.00
43701;BME280;58809;47.984;7.964;2022-12-11T04:37:14;96585.44;;;-2.96;100.00
43701;BME280;58809;47.984;7.964;2022-12-11T04:40:17;96598.28;;;-2.95;100.00
43701;BME280;58809;47.984;7.964;2022-12-11T04:43:19;96594.97;;;-2.97;100.00
43701;BME280;58809;47.984;7.964;2022-12-11T04:46:23;96592.59;;;-3.00;100.00
43701;BME280;58809;47.984;7.964;2022-12-11T04:49:24;96593.78;;;-3.04;100.00
43701;BME280;58809;47.984;7.964;2022-12-11T04:52:26;96594.00;;;-3.07;100.00
43701;BME280;58809;47.984;7.964;2022-12-11T04:55:28;96595.03;;;-3.10;100.00
43701;BME280;58809;47.984;7.964;2022-12-11T04:58:29;96591.00;;;-3.14;100.00
43701;BME280;58809;47.984;7.964;2022-12-11T05:01:31;96599.13;;;-3.18;100.00
43701;BME280;58809;47.984;7.964;2022-12-11T05:04:33;96588.06;;;-3.20;100.00
43701;BME280;58809;47.984;7.964;2022-12-11T05:07:35;96579.28;;;-3.31;100.00
43701;BME280;58809;47.984;7.964;2022-12-11T05:10:38;96586.34;;;-3.33;100.00
43701;BME280;58809;47.984;7.964;2022-12-11T05:13:40;96586.56;;;-3.36;100.00
43701;BME280;58809;47.984;7.964;2022-12-11T05:16:42;96587.81;;;-3.41;100.00
43701;BME280;58809;47.984;7.964;2022-12-11T05:19:46;96585.22;;;-3.41;100.00
43701;BME280;58809;47.984;7.964;2022-12-11T05:22:48;96582.03;;;-3.45;100.00
43701;BME280;58809;47.984;7.964;2022-12-11T05:25:57;96589.59;;;-3.42;100.00
43701;BME280;58809;47.984;7.964;2022-12-11T05:28:59;96579.84;;;-3.38;100.00
43701;BME280;58809;47.984;7.964;2022-12-11T05:32:01;96592.78;;;-3.38;100.00
43701;BME280;58809;47.984;7.964;2022-12-11T05:35:03;96582.53;;;-3.40;100.00
43701;BME280;58809;47.984;7.964;2022-12-11T05:38:05;96580.47;;;-3.35;100.00
43701;BME280;58809;47.984;7.964;2022-12-11T05:41:06;96571.69;;;-3.45;100.00
43701;BME280;58809;47.984;7.964;2022-12-11T05:44:11;96579.81;;;-3.50;100.00
43701;BME280;58809;47.984;7.964;2022-12-11T05:47:13;96575.16;;;-3.57;100.00
43701;BME280;58809;47.984;7.964;2022-12-11T05:50:17;96579.53;;;-3.71;100.00
43701;BME280;58809;47.984;7.964;2022-12-11T05:53:18;96581.44;;;-3.85;100.00
43701;BME280;58809;47.984;7.964;2022-12-11T05:56:23;96577.66;;;-4.06;100.00
43701;BME280;58809;47.984;7.964;2022-12-11T05:59:25;96574.78;;;-4.14;100.00
43701;BME280;58809;47.984;7.964;2022-12-11T06:02:26;96570.34;;;-4.24;100.00
43701;BME280;58809;47.984;7.964;2022-12-11T06:05:28;96571.72;;;-4.32;100.00
43701;BME280;58809;47.984;7.964;2022-12-11T06:08:30;96561.16;;;-4.54;100.00
43701;BME280;58809;47.984;7.964;2022-12-11T06:11:33;96567.97;;;-4.79;100.00
43701;BME280;58809;47.984;7.964;2022-12-11T06:14:34;96564.66;;;-4.94;100.00
43701;BME280;58809;47.984;7.964;2022-12-11T06:17:36;96573.59;;;-5.12;100.00
43701;BME280;58809;47.984;7.964;2022-12-11T06:20:37;96571.91;;;-5.26;100.00
43701;BME280;58809;47.984;7.964;2022-12-11T06:23:39;96572.00;;;-5.28;100.00
43701;BME280;58809;47.984;7.964;2022-12-11T06:26:42;96560.94;;;-5.30;100.00
43701;BME280;58809;47.984;7.964;2022-12-11T06:29:43;96563.22;;;-5.38;100.00
43701;BME280;58809;47.984;7.964;2022-12-11T06:32:46;96563.59;;;-5.44;100.00
43701;BME280;58809;47.984;7.964;2022-12-11T06:35:47;96565.78;;;-5.38;100.00
43701;BME280;58809;47.984;7.964;2022-12-11T06:38:49;96560.06;;;-5.56;100.00
43701;BME280;58809;47.984;7.964;2022-12-11T06:41:50;96561.75;;;-5.69;100.00
43701;BME280;58809;47.984;7.964;2022-12-11T06:44:52;96559.81;;;-5.66;100.00
43701;BME280;58809;47.984;7.964;2022-12-11T06:47:53;96557.59;;;-5.72;100.00
43701;BME280;58809;47.984;7.964;2022-12-11T06:50:55;96555.97;;;-5.73;100.00
43701;BME280;58809;47.984;7.964;2022-12-11T06:53:58;96553.88;;;-5.81;100.00
43701;BME280;58809;47.984;7.964;2022-12-11T06:56:59;96555.81;;;-5.84;100.00
43701;BME280;58809;47.984;7.964;2022-12-11T07:00:01;96554.88;;;-5.83;100.00
43701;BME280;58809;47.984;7.964;2022-12-11T07:03:03;96557.22;;;-5.93;100.00
43701;BME280;58809;47.984;7.964;2022-12-11T07:06:05;96551.81;;;-6.03;98.82
43701;BME280;58809;47.984;7.964;2022-12-11T07:09:06;96565.72;;;-6.05;99.99
43701;BME280;58809;47.984;7.964;2022-12-11T07:12:08;96565.53;;;-6.02;100.00
43701;BME280;58809;47.984;7.964;2022-12-11T07:15:10;96567.56;;;-6.07;99.69
43701;BME280;58809;47.984;7.964;2022-12-11T07:18:11;96581.16;;;-6.05;100.00
43701;BME280;58809;47.984;7.964;2022-12-11T07:21:13;96571.16;;;-6.10;100.00
43701;BME280;58809;47.984;7.964;2022-12-11T07:24:15;96575.19;;;-6.06;100.00
43701;BME280;58809;47.984;7.964;2022-12-11T07:27:17;96579.97;;;-6.00;99.78
43701;BME280;58809;47.984;7.964;2022-12-11T07:30:18;96577.69;;;-6.04;98.06
43701;BME280;58809;47.984;7.964;2022-12-11T07:33:20;96582.00;;;-6.05;98.17
43701;BME280;58809;47.984;7.964;2022-12-11T07:36:22;96580.91;;;-6.15;96.53
43701;BME280;58809;47.984;7.964;2022-12-11T07:39:24;96597.09;;;-6.27;97.15
43701;BME280;58809;47.984;7.964;2022-12-11T07:42:27;96596.91;;;-6.24;96.67
43701;BME280;58809;47.984;7.964;2022-12-11T07:45:28;96590.84;;;-6.23;96.32
43701;BME280;58809;47.984;7.964;2022-12-11T07:48:30;96592.84;;;-6.14;96.15
43701;BME280;58809;47.984;7.964;2022-12-11T07:51:35;96594.13;;;-6.07;96.04
43701;BME280;58809;47.984;7.964;2022-12-11T07:54:36;96595.44;;;-6.00;95.28
43701;BME280;58809;47.984;7.964;2022-12-11T07:57:38;96594.44;;;-5.97;94.37
43701;BME280;58809;47.984;7.964;2022-12-11T08:00:40;96594.81;;;-5.90;93.85
43701;BME280;58809;47.984;7.964;2022-12-11T08:03:42;96594.16;;;-5.80;93.44
43701;BME280;58809;47.984;7.964;2022-12-11T08:06:43;96591.00;;;-5.70;93.12
43701;BME280;58809;47.984;7.964;2022-12-11T08:09:45;96598.25;;;-5.63;92.23
43701;BME280;58809;47.984;7.964;2022-12-11T08:12:46;96591.53;;;-5.51;92.09
43701;BME280;58809;47.984;7.964;2022-12-11T08:15:48;96594.16;;;-5.38;92.01
43701;BME280;58809;47.984;7.964;2022-12-11T08:18:50;96596.88;;;-5.27;92.42
43701;BME280;58809;47.984;7.964;2022-12-11T08:21:52;96594.34;;;-5.14;92.62
43701;BME280;58809;47.984;7.964;2022-12-11T08:24:53;96599.84;;;-4.93;92.76
43701;BME280;58809;47.984;7.964;2022-12-11T08:27:55;96592.88;;;-4.78;91.76
43701;BME280;58809;47.984;7.964;2022-12-11T08:30:56;96600.13;;;-4.57;91.91
43701;BME280;58809;47.984;7.964;2022-12-11T08:33:58;96605.81;;;-4.52;91.48
43701;BME280;58809;47.984;7.964;2022-12-11T08:37:00;96603.31;;;-4.41;91.54
43701;BME280;58809;47.984;7.964;2022-12-11T08:40:02;96610.34;;;-4.30;91.16
43701;BME280;58809;47.984;7.964;2022-12-11T08:43:04;96611.59;;;-4.23;91.27
43701;BME280;58809;47.984;7.964;2022-12-11T08:46:08;96601.88;;;-4.19;91.15
43701;BME280;58809;47.984;7.964;2022-12-11T08:49:09;96599.59;;;-4.11;90.74
43701;BME280;58809;47.984;7.964;2022-12-11T08:52:11;96596.19;;;-4.12;90.15
43701;BME280;58809;47.984;7.964;2022-12-11T08:55:13;96598.16;;;-4.15;89.31
43701;BME280;58809;47.984;7.964;2022-12-11T08:58:14;96592.75;;;-4.25;89.02
43701;BME280;58809;47.984;7.964;2022-12-11T09:01:21;96591.31;;;-4.29;88.99
43701;BME280;58809;47.984;7.964;2022-12-11T09:04:23;96587.59;;;-4.38;88.77
43701;BME280;58809;47.984;7.964;2022-12-11T09:07:24;96586.59;;;-4.35;88.96
43701;BME280;58809;47.984;7.964;2022-12-11T09:10:26;96578.84;;;-4.35;87.95
43701;BME280;58809;47.984;7.964;2022-12-11T09:13:28;96582.22;;;-4.22;88.13
43701;BME280;58809;47.984;7.964;2022-12-11T09:16:30;96580.88;;;-4.15;87.53
43701;BME280;58809;47.984;7.964;2022-12-11T09:19:32;96580.56;;;-4.10;87.33
43701;BME280;58809;47.984;7.964;2022-12-11T09:22:33;96580.16;;;-4.04;87.02
43701;BME280;58809;47.984;7.964;2022-12-11T09:25:38;96570.94;;;-3.95;87.24
43701;BME280;58809;47.984;7.964;2022-12-11T09:28:40;96574.31;;;-3.82;86.69
43701;BME280;58809;47.984;7.964;2022-12-11T09:31:47;96567.97;;;-3.78;86.57
43701;BME280;58809;47.984;7.964;2022-12-11T09:34:50;96565.69;;;-3.70;86.41
43701;BME280;58809;47.984;7.964;2022-12-11T09:37:53;96572.56;;;-3.57;86.32
43701;BME280;58809;47.984;7.964;2022-12-11T09:40:55;96569.22;;;-3.46;86.51
43701;BME280;58809;47.984;7.964;2022-12-11T09:47:33;96556.72;;;-3.29;86.18
43701;BME280;58809;47.984;7.964;2022-12-11T09:50:35;96542.78;;;-3.15;86.27
43701;BME280;58809;47.984;7.964;2022-12-11T09:53:37;96542.00;;;-3.04;85.99
43701;BME280;58809;47.984;7.964;2022-12-11T10:03:28;96529.00;;;-2.80;85.63
43701;BME280;58809;47.984;7.964;2022-12-11T10:06:39;96520.06;;;-2.76;85.61
43701;BME280;58809;47.984;7.964;2022-12-11T10:09:54;96523.72;;;-2.78;85.46
43701;BME280;58809;47.984;7.964;2022-12-11T10:13:28;96509.22;;;-2.69;85.75
43701;BME280;58809;47.984;7.964;2022-12-11T10:16:44;96504.09;;;-2.58;85.82
43701;BME280;58809;47.984;7.964;2022-12-11T10:19:47;96501.59;;;-2.48;85.85
43701;BME280;58809;47.984;7.964;2022-12-11T10:22:49;96495.00;;;-2.41;85.72
43701;BME280;58809;47.984;7.964;2022-12-11T10:25:57;96494.53;;;-2.35;85.62
43701;BME280;58809;47.984;7.964;2022-12-11T10:29:05;96488.41;;;-2.23;85.48
43701;BME280;58809;47.984;7.964;2022-12-11T10:32:24;96486.41;;;-2.19;85.29
43701;BME280;58809;47.984;7.964;2022-12-11T10:38:54;96469.66;;;-2.15;85.18
43701;BME280;58809;47.984;7.964;2022-12-11T10:41:56;96460.34;;;-2.06;85.40
43701;BME280;58809;47.984;7.964;2022-12-11T10:45:00;96458.06;;;-2.00;85.44
43701;BME280;58809;47.984;7.964;2022-12-11T10:48:09;96460.78;;;-1.90;84.83
43701;BME280;58809;47.984;7.964;2022-12-11T10:51:11;96458.84;;;-1.77;85.29
43701;BME280;58809;47.984;7.964;2022-12-11T10:54:31;96453.72;;;-1.67;84.50
43701;BME280;58809;47.984;7.964;2022-12-11T10:57:35;96451.94;;;-1.55;84.65
43701;BME280;58809;47.984;7.964;2022-12-11T11:00:39;96446.25;;;-1.49;84.33
43701;BME280;58809;47.984;7.964;2022-12-11T11:04:34;96441.00;;;-1.38;84.58
43701;BME280;58809;47.984;7.964;2022-12-11T11:07:29;96444.50;;;-1.27;83.97
43701;BME280;58809;47.984;7.964;2022-12-11T11:10:31;96438.53;;;-1.18;83.98
43701;BME280;58809;47.984;7.964;2022-12-11T11:13:33;96436.97;;;-1.09;83.41
43701;BME280;58809;47.984;7.964;2022-12-11T11:16:36;96428.69;;;-0.93;83.64
43701;BME280;58809;47.984;7.964;2022-12-11T11:19:39;96433.56;;;-0.79;82.63
43701;BME280;58809;47.984;7.964;2022-12-11T11:22:44;96427.31;;;-0.76;82.50
43701;BME280;58809;47.984;7.964;2022-12-11T11:26:06;96422.38;;;-0.70;82.04
43701;BME280;58809;47.984;7.964;2022-12-11T11:29:23;96419.78;;;-0.70;81.58
43701;BME280;58809;47.984;7.964;2022-12-11T11:32:35;96408.94;;;-0.85;81.48
43701;BME280;58809;47.984;7.964;2022-12-11T11:35:49;96416.34;;;-0.80;81.52
43701;BME280;58809;47.984;7.964;2022-12-11T11:39:16;96411.59;;;-0.75;81.04
43701;BME280;58809;47.984;7.964;2022-12-11T11:45:46;96407.91;;;-0.93;80.50
43701;BME280;58809;47.984;7.964;2022-12-11T11:52:03;96415.94;;;-0.75;79.58
43701;BME280;58809;47.984;7.964;2022-12-11T11:55:32;96412.06;;;-0.60;79.13
43701;BME280;58809;47.984;7.964;2022-12-11T11:58:46;96415.63;;;-0.51;78.20
43701;BME280;58809;47.984;7.964;2022-12-11T12:01:53;96409.59;;;-0.52;77.65
43701;BME280;58809;47.984;7.964;2022-12-11T12:04:56;96407.28;;;-0.55;77.04
43701;BME280;58809;47.984;7.964;2022-12-11T12:15:29;96396.22;;;-0.47;76.31
43701;BME280;58809;47.984;7.964;2022-12-11T12:18:44;96404.94;;;-0.58;76.31
43701;BME280;58809;47.984;7.964;2022-12-11T12:21:50;96400.56;;;-0.57;78.78
43701;BME280;58809;47.984;7.964;2022-12-11T12:28:16;96398.16;;;-0.49;79.65
43701;BME280;58809;47.984;7.964;2022-12-11T12:31:23;96401.78;;;-0.62;82.85
43701;BME280;58809;47.984;7.964;2022-12-11T12:38:06;96404.47;;;-0.73;85.40
43701;BME280;58809;47.984;7.964;2022-12-11T12:41:18;96401.09;;;-0.64;86.48
43701;BME280;58809;47.984;7.964;2022-12-11T12:44:22;96401.75;;;-0.71;86.92
43701;BME280;58809;47.984;7.964;2022-12-11T12:47:29;96402.78;;;-0.53;87.11
43701;BME280;58809;47.984;7.964;2022-12-11T12:50:50;96399.78;;;-0.79;87.51
43701;BME280;58809;47.984;7.964;2022-12-11T12:54:01;96408.28;;;-0.77;87.91
43701;BME280;58809;47.984;7.964;2022-12-11T12:57:10;96412.50;;;-0.86;88.51
43701;BME280;58809;47.984;7.964;2022-12-11T13:00:24;96413.34;;;-0.75;88.70
43701;BME280;58809;47.984;7.964;2022-12-11T13:03:30;96410.03;;;-0.87;88.23
43701;BME280;58809;47.984;7.964;2022-12-11T13:06:34;96414.81;;;-0.83;89.70
43701;BME280;58809;47.984;7.964;2022-12-11T13:09:37;96417.47;;;-0.73;88.31
43701;BME280;58809;47.984;7.964;2022-12-11T13:12:44;96419.09;;;-1.03;89.07
43701;BME280;58809;47.984;7.964;2022-12-11T13:15:46;96413.66;;;-1.21;90.87
43701;BME280;58809;47.984;7.964;2022-12-11T13:18:48;96420.44;;;-1.29;90.93
43701;BME280;58809;47.984;7.964;2022-12-11T13:21:58;96415.19;;;-1.39;92.48
43701;BME280;58809;47.984;7.964;2022-12-11T13:25:20;96414.81;;;-1.13;90.43
43701;BME280;58809;47.984;7.964;2022-12-11T13:28:24;96414.25;;;-1.17;90.66
43701;BME280;58809;47.984;7.964;2022-12-11T13:31:35;96411.19;;;-1.22;90.08
43701;BME280;58809;47.984;7.964;2022-12-11T13:34:39;96411.06;;;-1.42;91.25
43701;BME280;58809;47.984;7.964;2022-12-11T13:37:43;96412.03;;;-1.43;91.78
43701;BME280;58809;47.984;7.964;2022-12-11T13:40:52;96415.31;;;-1.20;91.78
43701;BME280;58809;47.984;7.964;2022-12-11T13:43:56;96422.28;;;-1.20;90.94
43701;BME280;58809;47.984;7.964;2022-12-11T13:47:00;96424.53;;;-1.27;90.00
43701;BME280;58809;47.984;7.964;2022-12-11T13:50:33;96422.72;;;-1.36;90.39
43701;BME280;58809;47.984;7.964;2022-12-11T13:53:34;96428.47;;;-1.53;91.34
43701;BME280;58809;47.984;7.964;2022-12-11T13:56:36;96434.72;;;-1.56;91.74
43701;BME280;58809;47.984;7.964;2022-12-11T13:59:41;96434.94;;;-1.48;91.27
43701;BME280;58809;47.984;7.964;2022-12-11T14:02:43;96429.84;;;-1.49;91.19
43701;BME280;58809;47.984;7.964;2022-12-11T14:05:45;96439.31;;;-1.27;91.74
43701;BME280;58809;47.984;7.964;2022-12-11T14:08:49;96448.41;;;-1.12;90.48
43701;BME280;58809;47.984;7.964;2022-12-11T14:11:52;96450.13;;;-1.22;89.37
43701;BME280;58809;47.984;7.964;2022-12-11T14:14:58;96454.19;;;-1.29;89.55
43701;BME280;58809;47.984;7.964;2022-12-11T14:18:03;96450.56;;;-1.38;89.88
43701;BME280;58809;47.984;7.964;2022-12-11T14:21:05;96461.81;;;-1.49;90.01
43701;BME280;58809;47.984;7.964;2022-12-11T14:24:11;96464.56;;;-1.62;91.70
43701;BME280;58809;47.984;7.964;2022-12-11T14:27:15;96462.59;;;-1.69;92.35
43701;BME280;58809;47.984;7.964;2022-12-11T14:30:31;96464.38;;;-1.70;92.34
43701;BME280;58809;47.984;7.964;2022-12-11T14:33:39;96461.91;;;-1.71;93.18
43701;BME280;58809;47.984;7.964;2022-12-11T14:36:44;96469.19;;;-1.65;92.61
43701;BME280;58809;47.984;7.964;2022-12-11T14:39:55;96463.22;;;-1.77;92.52
43701;BME280;58809;47.984;7.964;2022-12-11T14:43:01;96468.63;;;-1.80;93.72
43701;BME280;58809;47.984;7.964;2022-12-11T14:46:12;96472.28;;;-1.71;93.18
43701;BME280;58809;47.984;7.964;2022-12-11T14:49:23;96478.91;;;-1.79;93.59
43701;BME280;58809;47.984;7.964;2022-12-11T14:52:34;96479.09;;;-1.70;94.09
43701;BME280;58809;47.984;7.964;2022-12-11T14:55:39;96477.81;;;-1.76;93.73
43701;BME280;58809;47.984;7.964;2022-12-11T14:58:47;96479.84;;;-1.80;93.85
43701;BME280;58809;47.984;7.964;2022-12-11T15:02:00;96475.09;;;-1.75;94.57
43701;BME280;58809;47.984;7.964;2022-12-11T15:05:16;96476.81;;;-1.85;93.82
43701;BME280;58809;47.984;7.964;2022-12-11T15:08:23;96474.47;;;-1.99;94.28
43701;BME280;58809;47.984;7.964;2022-12-11T15:11:30;96463.06;;;-2.19;95.28
43701;BME280;58809;47.984;7.964;2022-12-11T15:14:33;96463.44;;;-2.35;95.80
43701;BME280;58809;47.984;7.964;2022-12-11T15:17:34;96459.69;;;-2.54;96.72
43701;BME280;58809;47.984;7.964;2022-12-11T15:20:37;96457.44;;;-2.69;97.61
43701;BME280;58809;47.984;7.964;2022-12-11T15:26:47;96449.06;;;-2.96;98.66
43701;BME280;58809;47.984;7.964;2022-12-11T15:29:49;96445.88;;;-3.11;99.21
43701;BME280;58809;47.984;7.964;2022-12-11T15:36:39;96455.25;;;-3.21;100.00
43701;BME280;58809;47.984;7.964;2022-12-11T15:39:41;96455.81;;;-3.29;100.00
43701;BME280;58809;47.984;7.964;2022-12-11T15:42:42;96453.31;;;-3.41;100.00
43701;BME280;58809;47.984;7.964;2022-12-11T15:45:44;96455.50;;;-3.48;100.00
43701;BME280;58809;47.984;7.964;2022-12-11T15:48:47;96459.97;;;-3.50;100.00
43701;BME280;58809;47.984;7.964;2022-12-11T15:51:49;96457.63;;;-3.53;100.00
43701;BME280;58809;47.984;7.964;2022-12-11T15:54:50;96453.00;;;-3.61;100.00
43701;BME280;58809;47.984;7.964;2022-12-11T15:57:57;96452.63;;;-3.68;100.00
43701;BME280;58809;47.984;7.964;2022-12-11T16:01:00;96458.69;;;-3.80;100.00
43701;BME280;58809;47.984;7.964;2022-12-11T16:04:01;96457.63;;;-4.01;100.00
43701;BME280;58809;47.984;7.964;2022-12-11T16:07:08;96467.00;;;-4.12;100.00
43701;BME280;58809;47.984;7.964;2022-12-11T16:10:15;96456.97;;;-4.16;100.00
43701;BME280;58809;47.984;7.964;2022-12-11T16:13:17;96463.38;;;-4.22;100.00
43701;BME280;58809;47.984;7.964;2022-12-11T16:16:19;96462.50;;;-4.34;100.00
43701;BME280;58809;47.984;7.964;2022-12-11T16:19:23;96463.63;;;-4.38;100.00
43701;BME280;58809;47.984;7.964;2022-12-11T16:22:25;96462.59;;;-4.35;100.00
43701;BME280;58809;47.984;7.964;2022-12-11T16:25:27;96451.25;;;-4.46;100.00
43701;BME280;58809;47.984;7.964;2022-12-11T16:28:28;96463.06;;;-4.80;100.00
43701;BME280;58809;47.984;7.964;2022-12-11T16:31:30;96463.06;;;-4.93;100.00
43701;BME280;58809;47.984;7.964;2022-12-11T16:34:32;96461.00;;;-5.00;100.00
43701;BME280;58809;47.984;7.964;2022-12-11T16:37:34;96455.75;;;-5.12;100.00
43701;BME280;58809;47.984;7.964;2022-12-11T16:40:36;96458.53;;;-5.15;100.00
43701;BME280;58809;47.984;7.964;2022-12-11T16:43:38;96454.22;;;-5.14;100.00
43701;BME280;58809;47.984;7.964;2022-12-11T16:46:39;96452.25;;;-5.24;100.00
43701;BME280;58809;47.984;7.964;2022-12-11T16:49:41;96451.09;;;-5.32;100.00
43701;BME280;58809;47.984;7.964;2022-12-11T16:52:44;96442.56;;;-5.33;100.00
43701;BME280;58809;47.984;7.964;2022-12-11T16:55:46;96447.97;;;-5.50;100.00
43701;BME280;58809;47.984;7.964;2022-12-11T16:58:47;96436.63;;;-5.48;100.00
43701;BME280;58809;47.984;7.964;2022-12-11T17:01:49;96432.31;;;-5.47;100.00
43701;BME280;58809;47.984;7.964;2022-12-11T17:04:51;96430.75;;;-5.50;100.00
43701;BME280;58809;47.984;7.964;2022-12-11T17:07:54;96426.63;;;-5.52;100.00